createdAt,value
2023-05-11T00:02:12.136Z,0.85
2023-05-11T00:04:39.487Z,0.70
2023-05-11T00:07:06.934Z,0.80
2023-05-11T00:09:34.027Z,1.33
2023-05-11T00:12:02.554Z,1.05
2023-05-11T00:14:29.766Z,2.20
2023-05-11T00:16:56.844Z,2.08
2023-05-11T00:19:23.945Z,0.80
2023-05-11T00:21:51.028Z,1.30
2023-05-11T00:24:18.252Z,1.48
2023-05-11T00:26:45.367Z,0.77
2023-05-11T00:29:13.766Z,0.77
2023-05-11T00:31:40.953Z,0.77
2023-05-11T00:34:08.119Z,1.00
2023-05-11T00:36:35.230Z,1.23
2023-05-11T00:39:02.549Z,1.38
2023-05-11T00:41:29.700Z,1.02
2023-05-11T00:43:56.798Z,0.98
2023-05-11T00:46:25.423Z,0.82
2023-05-11T00:48:52.701Z,1.05
2023-05-11T00:51:20.039Z,0.70
2023-05-11T00:53:47.401Z,0.63
2023-05-11T00:56:14.812Z,1.27
2023-05-11T00:58:42.158Z,0.73
2023-05-11T01:01:09.648Z,1.00
2023-05-11T01:03:38.369Z,0.85
2023-05-11T01:06:10.892Z,0.82
2023-05-11T01:08:42.984Z,0.90
2023-05-11T01:11:17.664Z,1.15
2023-05-11T01:13:50.683Z,0.75
2023-05-11T01:16:20.811Z,0.87
2023-05-11T01:18:52.779Z,1.48
2023-05-11T01:21:20.029Z,1.23
2023-05-11T01:24:15.713Z,1.00
2023-05-11T01:26:59.433Z,0.63
2023-05-11T01:29:48.075Z,0.60
2023-05-11T01:32:19.896Z,0.50
2023-05-11T01:34:48.327Z,1.67
2023-05-11T01:37:18.515Z,1.17
2023-05-11T01:39:51.372Z,0.88
2023-05-11T01:42:21.749Z,1.23
2023-05-11T01:44:52.790Z,1.05
2023-05-11T01:47:23.486Z,0.70
2023-05-11T01:49:53.255Z,0.47
2023-05-11T01:52:23.079Z,0.68
2023-05-11T01:54:52.675Z,0.82
2023-05-11T01:57:21.692Z,0.85
2023-05-11T01:59:49.643Z,1.55
2023-05-11T02:02:18.642Z,1.10
2023-05-11T02:04:48.323Z,0.57
2023-05-11T02:07:17.741Z,1.13
2023-05-11T02:09:45.960Z,1.98
2023-05-11T02:12:15.868Z,0.88
2023-05-11T02:14:44.083Z,0.70
2023-05-11T02:17:11.488Z,1.70
2023-05-11T02:19:41.989Z,0.93
2023-05-11T02:22:12.414Z,1.08
2023-05-11T02:24:40.135Z,1.00
2023-05-11T02:27:07.251Z,0.68
2023-05-11T02:29:34.441Z,0.90
2023-05-11T02:32:06.704Z,0.60
2023-05-11T02:34:40.593Z,0.65
2023-05-11T02:39:40.273Z,0.98
2023-05-11T02:42:12.914Z,1.05
2023-05-11T02:44:49.994Z,0.40
2023-05-11T02:47:19.879Z,1.27
2023-05-11T02:49:49.362Z,1.05
2023-05-11T02:52:18.200Z,0.70
2023-05-11T02:54:48.659Z,0.47
2023-05-11T02:57:15.859Z,1.40
2023-05-11T02:59:42.991Z,1.02
2023-05-11T03:02:10.206Z,0.50
2023-05-11T03:04:38.573Z,0.50
2023-05-11T03:07:06.476Z,1.50
2023-05-11T03:09:34.586Z,0.73
2023-05-11T03:12:04.020Z,1.80
2023-05-11T03:14:32.865Z,0.85
2023-05-11T03:17:00.606Z,2.05
2023-05-11T03:19:28.744Z,1.25
2023-05-11T03:21:57.953Z,1.73
2023-05-11T03:24:26.281Z,1.30
2023-05-11T03:26:54.902Z,0.70
2023-05-11T03:29:25.268Z,1.65
2023-05-11T03:31:53.796Z,1.58
2023-05-11T03:34:21.103Z,0.88
2023-05-11T03:36:50.480Z,0.93
2023-05-11T03:39:18.016Z,1.50
2023-05-11T03:41:48.835Z,0.80
2023-05-11T03:44:18.097Z,1.05
2023-05-11T03:46:48.973Z,3.20
2023-05-11T03:49:17.425Z,1.95
2023-05-11T03:51:45.563Z,1.75
2023-05-11T03:54:12.947Z,3.90
2023-05-11T03:56:40.642Z,4.80
2023-05-11T03:59:08.201Z,3.20
2023-05-11T04:01:35.458Z,7.40
2023-05-11T04:04:04.292Z,3.05
2023-05-11T04:06:31.454Z,4.97
2023-05-11T04:08:58.565Z,3.17
2023-05-11T04:11:25.663Z,2.63
2023-05-11T04:13:52.825Z,3.85
2023-05-11T04:16:19.990Z,2.78
2023-05-11T04:18:47.267Z,2.25
2023-05-11T04:21:17.036Z,2.40
2023-05-11T04:23:44.121Z,4.30
2023-05-11T04:26:11.193Z,2.45
2023-05-11T04:28:38.286Z,1.20
2023-05-11T04:31:05.403Z,1.17
2023-05-11T04:33:32.623Z,2.80
2023-05-11T04:35:59.729Z,2.60
2023-05-11T04:38:28.208Z,4.85
2023-05-11T04:40:55.280Z,2.55
2023-05-11T04:43:22.407Z,3.38
2023-05-11T04:45:50.081Z,2.15
2023-05-11T04:48:20.388Z,3.03
2023-05-11T04:50:47.932Z,1.75
2023-05-11T04:53:15.050Z,3.75
2023-05-11T04:55:43.485Z,2.65
2023-05-11T04:58:10.568Z,2.95
2023-05-11T05:00:38.005Z,2.67
2023-05-11T05:03:05.153Z,4.55
2023-05-11T05:05:32.245Z,1.80
2023-05-11T05:07:59.341Z,1.15
2023-05-11T05:10:26.451Z,3.33
2023-05-11T05:12:55.154Z,3.30
2023-05-11T05:15:22.366Z,2.50
2023-05-11T05:17:49.502Z,1.35
2023-05-11T05:20:16.939Z,3.08
2023-05-11T05:22:44.165Z,2.08
2023-05-11T05:25:11.289Z,1.45
2023-05-11T05:27:38.373Z,1.65
2023-05-11T05:30:08.058Z,1.77
2023-05-11T05:32:35.136Z,1.60
2023-05-11T05:35:02.469Z,3.25
2023-05-11T05:37:29.644Z,1.83
2023-05-11T05:39:56.797Z,1.75
2023-05-11T05:42:23.868Z,2.88
2023-05-11T05:44:50.978Z,0.85
2023-05-11T05:47:19.462Z,2.47
2023-05-11T05:49:46.566Z,0.75
2023-05-11T05:52:13.657Z,1.88
2023-05-11T05:54:40.728Z,0.57
2023-05-11T05:57:07.819Z,1.15
2023-05-11T05:59:34.944Z,2.20
2023-05-11T06:02:02.117Z,1.58
2023-05-11T06:04:30.757Z,1.42
2023-05-11T06:06:57.925Z,1.02
2023-05-11T06:09:25.061Z,0.60
2023-05-11T06:11:52.131Z,1.20
2023-05-11T06:14:19.271Z,1.13
2023-05-11T06:16:46.381Z,0.80
2023-05-11T06:19:13.653Z,2.70
2023-05-11T06:21:42.318Z,1.95
2023-05-11T06:24:09.435Z,0.68
2023-05-11T06:26:37.286Z,3.15
2023-05-11T06:29:04.401Z,2.05
2023-05-11T06:31:31.501Z,0.98
2023-05-11T06:33:58.612Z,1.38
2023-05-11T06:36:25.725Z,1.13
2023-05-11T06:38:54.176Z,1.02
2023-05-11T06:41:21.338Z,1.00
2023-05-11T06:43:48.468Z,0.40
2023-05-11T06:46:15.607Z,0.70
2023-05-11T06:48:42.732Z,1.88
2023-05-11T06:51:10.320Z,1.73
2023-05-11T06:53:37.434Z,0.85
2023-05-11T06:56:06.525Z,1.38
2023-05-11T06:58:33.834Z,1.00
2023-05-11T07:01:00.977Z,1.15
2023-05-11T07:03:28.096Z,0.70
2023-05-11T07:05:55.191Z,1.27
2023-05-11T07:08:22.276Z,1.20
2023-05-11T07:10:49.420Z,0.63
2023-05-11T07:13:17.868Z,1.02
2023-05-11T07:15:44.988Z,1.70
2023-05-11T07:18:12.278Z,0.90
2023-05-11T07:20:39.470Z,2.53
2023-05-11T07:23:06.603Z,1.13
2023-05-11T07:25:33.785Z,0.93
2023-05-11T07:28:00.964Z,1.50
2023-05-11T07:30:29.385Z,0.52
2023-05-11T07:32:56.531Z,0.82
2023-05-11T07:35:24.301Z,2.08
2023-05-11T07:37:51.739Z,1.00
2023-05-11T07:40:19.271Z,1.10
2023-05-11T07:42:46.630Z,0.43
2023-05-11T07:45:13.747Z,0.60
2023-05-11T07:47:42.214Z,0.88
2023-05-11T07:50:09.821Z,1.80
2023-05-11T07:52:36.938Z,2.00
2023-05-11T07:55:04.548Z,0.80
2023-05-11T07:57:31.667Z,0.95
2023-05-11T07:59:58.736Z,0.40
2023-05-11T08:02:25.917Z,0.57
2023-05-11T08:04:54.467Z,1.15
2023-05-11T08:07:21.545Z,0.50
2023-05-11T08:09:48.634Z,1.08
2023-05-11T08:12:15.733Z,0.90
2023-05-11T08:14:42.791Z,0.60
2023-05-11T08:17:09.890Z,0.57
2023-05-11T08:19:37.094Z,1.05
2023-05-11T08:22:05.525Z,1.10
2023-05-11T08:24:32.615Z,0.57
2023-05-11T08:26:59.758Z,1.65
2023-05-11T08:29:26.869Z,1.00
2023-05-11T08:31:53.972Z,0.80
2023-05-11T08:34:21.211Z,1.05
2023-05-11T08:36:48.411Z,1.42
2023-05-11T08:39:24.886Z,1.60
2023-05-11T08:42:02.880Z,1.40
2023-05-11T08:44:32.429Z,0.68
2023-05-11T08:47:14.279Z,1.15
2023-05-11T08:49:47.443Z,0.63
2023-05-11T08:52:16.198Z,1.15
2023-05-11T08:54:45.112Z,0.70
2023-05-11T08:57:13.992Z,0.85
2023-05-11T08:59:44.198Z,0.85
2023-05-11T09:02:15.843Z,1.13
2023-05-11T09:04:46.059Z,0.52
2023-05-11T09:07:15.676Z,0.88
2023-05-11T09:09:45.214Z,1.40
2023-05-11T09:12:12.674Z,0.63
2023-05-11T09:14:40.082Z,0.70
2023-05-11T09:17:07.296Z,1.45
2023-05-11T09:19:34.435Z,0.73
2023-05-11T09:22:01.693Z,0.85
2023-05-11T09:24:28.815Z,0.80
2023-05-11T09:27:10.101Z,0.65
2023-05-11T09:29:37.212Z,1.08
2023-05-11T09:32:04.909Z,0.85
2023-05-11T09:34:32.255Z,0.40
2023-05-11T09:36:59.402Z,0.73
2023-05-11T09:39:38.282Z,0.70
2023-05-11T09:42:14.383Z,0.75
2023-05-11T09:44:41.854Z,1.10
2023-05-11T09:47:13.697Z,0.77
2023-05-11T09:49:41.260Z,1.83
2023-05-11T09:52:09.235Z,1.55
2023-05-11T09:54:41.253Z,1.00
2023-05-11T09:57:24.405Z,2.72
2023-05-11T09:59:51.992Z,0.95
2023-05-11T10:02:20.913Z,1.35
2023-05-11T10:04:48.646Z,1.42
2023-05-11T10:07:26.624Z,1.40
2023-05-11T10:09:54.572Z,1.20
2023-05-11T10:12:23.096Z,1.20
2023-05-11T10:14:53.107Z,0.90
2023-05-11T10:17:20.552Z,0.80
2023-05-11T10:19:48.852Z,0.85
2023-05-11T10:22:16.628Z,0.60
2023-05-11T10:24:44.120Z,0.70
2023-05-11T10:27:11.956Z,0.55
2023-05-11T10:29:39.364Z,2.72
2023-05-11T10:32:08.561Z,0.50
2023-05-11T10:34:36.807Z,0.75
2023-05-11T10:37:04.746Z,0.57
2023-05-11T10:39:32.700Z,0.75
2023-05-11T10:42:22.359Z,1.25
2023-05-11T10:45:00.451Z,0.40
2023-05-11T10:47:58.335Z,2.13
2023-05-11T10:50:43.389Z,0.85
2023-05-11T10:53:33.448Z,0.57
2023-05-11T10:56:24.486Z,0.38
2023-05-11T10:59:14.856Z,0.60
2023-05-11T11:01:43.005Z,1.33
2023-05-11T11:04:12.874Z,1.98
2023-05-11T11:06:41.522Z,2.47
2023-05-11T11:09:09.762Z,0.77
2023-05-11T11:11:38.275Z,1.27
2023-05-11T11:14:07.569Z,1.13
2023-05-11T11:16:35.241Z,0.70
2023-05-11T11:19:38.305Z,1.77
2023-05-11T11:22:05.748Z,1.10
2023-05-11T11:24:46.693Z,1.65
2023-05-11T11:27:14.918Z,1.05
2023-05-11T11:30:17.825Z,1.13
2023-05-11T11:32:46.330Z,0.75
2023-05-11T11:35:48.070Z,0.60
2023-05-11T11:38:17.522Z,1.65
2023-05-11T11:43:17.805Z,0.40
2023-05-11T11:45:52.580Z,0.60
2023-05-11T11:48:29.369Z,1.30
2023-05-11T11:51:06.027Z,0.68
2023-05-11T11:54:03.373Z,0.77
2023-05-11T11:56:43.426Z,0.95
2023-05-11T11:59:14.087Z,0.88
2023-05-11T12:01:43.593Z,0.63
2023-05-11T12:04:39.568Z,0.60
2023-05-11T12:07:09.619Z,0.40
2023-05-11T12:09:38.517Z,0.88
2023-05-11T12:12:07.053Z,0.38
2023-05-11T12:14:35.039Z,0.73
2023-05-11T12:17:07.548Z,0.65
2023-05-11T12:19:34.721Z,0.45
2023-05-11T12:22:01.918Z,0.75
2023-05-11T12:24:30.390Z,1.25
2023-05-11T12:26:57.554Z,0.60
2023-05-11T12:29:24.870Z,0.60
2023-05-11T12:31:52.101Z,0.80
2023-05-11T12:34:20.232Z,0.40
2023-05-11T12:36:48.650Z,0.80
2023-05-11T12:39:17.913Z,0.43
2023-05-11T12:41:47.442Z,1.25
2023-05-11T12:44:16.034Z,0.43
2023-05-11T12:46:44.579Z,0.30
2023-05-11T12:49:12.857Z,0.60
2023-05-11T12:52:00.290Z,0.65
2023-05-11T12:54:29.998Z,0.47
2023-05-11T12:56:59.059Z,1.42
2023-05-11T12:59:29.033Z,0.82
2023-05-11T13:02:04.279Z,1.42
2023-05-11T13:04:32.105Z,1.10
2023-05-11T13:06:59.302Z,0.30
2023-05-11T13:09:27.119Z,0.30
2023-05-11T13:12:13.698Z,0.22
2023-05-11T13:14:40.830Z,0.63
2023-05-11T13:17:08.159Z,0.50
2023-05-11T13:19:35.316Z,0.50
2023-05-11T13:22:02.416Z,0.45
2023-05-11T13:24:29.592Z,1.35
2023-05-11T13:26:58.439Z,0.20
2023-05-11T13:29:26.915Z,0.30
2023-05-11T13:31:54.181Z,0.50
2023-05-11T13:34:21.452Z,0.52
2023-05-11T13:36:49.114Z,0.50
2023-05-11T13:39:16.533Z,0.50
2023-05-11T13:41:43.929Z,0.30
2023-05-11T13:44:11.094Z,0.73
2023-05-11T13:46:39.552Z,0.32
2023-05-11T13:49:06.708Z,0.30
2023-05-11T13:51:34.010Z,0.40
2023-05-11T13:54:01.574Z,0.30
2023-05-11T13:56:28.913Z,0.38
2023-05-11T13:58:58.421Z,0.70
2023-05-11T14:01:27.133Z,0.30
2023-05-11T14:03:57.098Z,0.40
2023-05-11T14:06:25.244Z,0.20
2023-05-11T14:08:55.114Z,0.80
2023-05-11T14:11:22.232Z,0.75
2023-05-11T14:13:50.573Z,0.60
2023-05-11T14:16:18.179Z,0.52
2023-05-11T14:18:45.787Z,0.63
2023-05-11T14:21:14.262Z,0.82
2023-05-11T14:23:49.960Z,0.52
2023-05-11T14:26:25.201Z,0.40
2023-05-11T14:28:52.399Z,0.55
2023-05-11T14:31:19.862Z,0.40
2023-05-11T14:33:47.003Z,0.30
2023-05-11T14:36:15.430Z,0.80
2023-05-11T14:38:42.536Z,0.43
2023-05-11T14:41:09.627Z,0.45
2023-05-11T14:43:36.709Z,0.45
2023-05-11T14:46:03.897Z,0.60
2023-05-11T14:48:31.314Z,0.50
2023-05-11T14:50:58.402Z,0.50
2023-05-11T14:53:26.817Z,0.50
2023-05-11T14:55:53.987Z,1.25
2023-05-11T14:58:21.079Z,0.38
2023-05-11T15:00:48.157Z,0.70
2023-05-11T15:03:15.308Z,0.40
2023-05-11T15:05:42.441Z,0.77
2023-05-11T15:08:21.718Z,0.90
2023-05-11T15:10:54.532Z,0.47
2023-05-11T15:13:22.419Z,1.02
2023-05-11T15:15:49.702Z,0.55
2023-05-11T15:18:16.852Z,0.32
2023-05-11T15:20:44.125Z,0.35
2023-05-11T15:23:11.232Z,0.32
2023-05-11T15:25:38.387Z,0.40
2023-05-11T15:28:06.890Z,0.20
2023-05-11T15:30:33.964Z,0.32
2023-05-11T15:33:01.228Z,0.32
2023-05-11T15:35:28.355Z,0.63
2023-05-11T15:37:55.429Z,0.30
2023-05-11T15:40:22.599Z,0.90
2023-05-11T15:42:49.677Z,1.38
2023-05-11T15:45:18.378Z,0.40
2023-05-11T15:47:45.837Z,0.40
2023-05-11T15:50:13.264Z,1.15
2023-05-11T15:52:40.357Z,0.47
2023-05-11T15:55:08.154Z,0.50
2023-05-11T15:57:36.701Z,1.35
2023-05-11T16:00:04.544Z,0.68
2023-05-11T16:02:33.312Z,0.45
2023-05-11T16:05:00.502Z,0.40
2023-05-11T16:07:27.620Z,0.52
2023-05-11T16:09:54.715Z,0.85
2023-05-11T16:12:21.914Z,0.55
2023-05-11T16:14:49.009Z,0.88
2023-05-11T16:17:16.222Z,1.25
2023-05-11T16:19:44.822Z,4.70
2023-05-11T16:22:11.905Z,5.38
2023-05-11T16:24:39.031Z,3.30
2023-05-11T16:27:06.115Z,8.13
2023-05-11T16:29:33.230Z,4.38
2023-05-11T16:32:00.650Z,437.90
2023-05-11T16:34:27.966Z,549.75
2023-05-11T16:36:58.767Z,219.55
2023-05-11T16:39:26.414Z,176.82
2023-05-11T16:41:53.506Z,226.10
2023-05-11T16:44:20.596Z,268.52
2023-05-11T16:46:47.917Z,168.80
2023-05-11T16:49:15.144Z,151.73
2023-05-11T16:51:42.299Z,150.57
2023-05-11T16:54:10.782Z,141.55
2023-05-11T16:56:37.874Z,144.60
2023-05-11T16:59:04.997Z,147.82
2023-05-11T17:01:32.124Z,144.85
2023-05-11T17:03:59.305Z,138.20
2023-05-11T17:06:26.636Z,148.38
2023-05-11T17:08:54.294Z,145.07
2023-05-11T17:11:22.881Z,130.68
2023-05-11T17:13:50.321Z,137.80
2023-05-11T17:16:17.457Z,131.50
2023-05-11T17:18:44.666Z,131.15
2023-05-11T17:21:11.850Z,131.60
2023-05-11T17:23:38.986Z,128.00
2023-05-11T17:26:09.528Z,124.30
2023-05-11T17:28:38.030Z,127.85
2023-05-11T17:31:09.220Z,111.28
2023-05-11T17:33:36.401Z,114.63
2023-05-11T17:36:04.374Z,114.05
2023-05-11T17:38:31.808Z,117.18
2023-05-11T17:40:59.707Z,114.75
2023-05-11T17:43:26.944Z,121.10
2023-05-11T17:45:55.549Z,110.43
2023-05-11T17:48:22.677Z,108.82
2023-05-11T17:50:49.779Z,104.22
2023-05-11T17:53:16.995Z,95.43
2023-05-11T17:55:44.088Z,99.13
2023-05-11T17:58:11.173Z,97.10
2023-05-11T18:00:38.283Z,101.80
2023-05-11T18:03:06.928Z,94.22
2023-05-11T18:05:47.641Z,91.72
2023-05-11T18:08:15.981Z,92.22
2023-05-11T18:10:43.082Z,90.93
2023-05-11T18:13:10.224Z,89.85
2023-05-11T18:15:37.405Z,88.22
2023-05-11T18:18:06.052Z,93.90
2023-05-11T18:20:33.241Z,88.10
2023-05-11T18:23:00.384Z,84.47
2023-05-11T18:25:27.468Z,82.97
2023-05-11T18:27:54.581Z,84.97
2023-05-11T18:30:21.995Z,85.60
2023-05-11T18:32:49.327Z,84.80
2023-05-11T18:35:18.199Z,80.70
2023-05-11T18:37:45.739Z,78.40
2023-05-11T18:40:13.381Z,79.95
2023-05-11T18:42:40.476Z,84.40
2023-05-11T18:45:08.924Z,76.20
2023-05-11T18:47:36.283Z,74.93
2023-05-11T18:50:04.338Z,75.63
2023-05-11T18:52:32.988Z,76.43
2023-05-11T18:55:00.128Z,71.20
2023-05-11T18:57:27.265Z,68.93
2023-05-11T18:59:54.372Z,66.75
2023-05-11T19:02:21.498Z,71.40
2023-05-11T19:04:48.625Z,71.25
2023-05-11T19:07:16.548Z,65.18
2023-05-11T19:09:45.007Z,65.45
2023-05-11T19:12:12.076Z,58.13
2023-05-11T19:14:39.180Z,64.47
2023-05-11T19:17:06.271Z,64.25
2023-05-11T19:19:33.347Z,60.33
2023-05-11T19:22:00.582Z,59.10
2023-05-11T19:24:27.789Z,63.80
2023-05-11T19:27:06.685Z,58.10
2023-05-11T19:29:35.195Z,57.15
2023-05-11T19:32:02.560Z,63.67
2023-05-11T19:34:29.726Z,61.78
2023-05-11T19:36:56.922Z,57.40
2023-05-11T19:39:24.341Z,54.25
2023-05-11T19:41:51.486Z,55.15
2023-05-11T19:44:20.222Z,55.70
2023-05-11T19:46:47.642Z,55.50
2023-05-11T19:49:15.160Z,54.38
2023-05-11T19:51:42.871Z,59.33
2023-05-11T19:54:10.543Z,55.88
2023-05-11T19:56:37.685Z,55.60
2023-05-11T19:59:04.872Z,51.97
2023-05-11T20:01:33.549Z,54.42
2023-05-11T20:04:01.184Z,51.45
2023-05-11T20:06:28.792Z,49.63
2023-05-11T20:08:55.889Z,59.80
2023-05-11T20:11:22.984Z,52.35
2023-05-11T20:13:50.068Z,49.00
2023-05-11T20:16:17.187Z,48.00
2023-05-11T20:18:45.658Z,46.13
2023-05-11T20:21:13.340Z,46.38
2023-05-11T20:23:40.432Z,47.35
2023-05-11T20:26:07.546Z,44.83
2023-05-11T20:28:34.699Z,47.80
2023-05-11T20:31:01.853Z,40.97
2023-05-11T20:36:00.358Z,44.38
2023-05-11T20:38:27.517Z,43.33
2023-05-11T20:40:56.077Z,41.80
2023-05-11T20:43:23.208Z,41.25
2023-05-11T20:45:50.329Z,42.20
2023-05-11T20:48:23.364Z,40.67
2023-05-11T20:51:00.854Z,39.85
2023-05-11T20:53:27.977Z,42.03
2023-05-11T20:55:55.044Z,42.13
2023-05-11T20:58:22.170Z,40.70
2023-05-11T21:00:49.282Z,39.05
2023-05-11T21:03:16.456Z,34.92
2023-05-11T21:05:43.673Z,35.42
2023-05-11T21:08:12.106Z,36.60
2023-05-11T21:10:39.170Z,36.05
2023-05-11T21:13:06.620Z,35.90
2023-05-11T21:15:33.902Z,35.72
2023-05-11T21:18:01.057Z,35.10
2023-05-11T21:20:28.295Z,33.90
2023-05-11T21:22:55.360Z,29.70
2023-05-11T21:25:24.041Z,35.22
2023-05-11T21:27:51.137Z,33.53
2023-05-11T21:30:18.552Z,36.22
2023-05-11T21:32:46.183Z,32.22
2023-05-11T21:35:13.444Z,31.40
2023-05-11T21:37:40.522Z,33.80
2023-05-11T21:40:09.092Z,29.95
2023-05-11T21:42:37.596Z,28.60
2023-05-11T21:45:05.837Z,30.55
2023-05-11T21:47:33.004Z,31.50
2023-05-11T21:50:00.171Z,28.63
2023-05-11T21:52:27.243Z,31.40
2023-05-11T21:54:54.351Z,29.83
2023-05-11T21:57:21.785Z,31.27
2023-05-11T21:59:51.306Z,29.10
2023-05-11T22:02:18.514Z,26.17
2023-05-11T22:04:45.609Z,25.88
2023-05-11T22:07:12.705Z,28.58
2023-05-11T22:09:39.844Z,26.70
2023-05-11T22:12:08.142Z,25.25
2023-05-11T22:14:35.720Z,27.70
2023-05-11T22:17:04.298Z,28.40
2023-05-11T22:19:31.439Z,27.45
2023-05-11T22:21:58.863Z,25.30
2023-05-11T22:24:25.980Z,26.45
2023-05-11T22:26:53.219Z,29.33
2023-05-11T22:29:20.457Z,25.63
2023-05-11T22:31:47.817Z,23.95
2023-05-11T22:34:16.436Z,26.08
2023-05-11T22:36:43.672Z,25.00
2023-05-11T22:39:10.767Z,26.23
2023-05-11T22:41:37.949Z,25.80
2023-05-11T22:44:05.575Z,23.48
2023-05-11T22:46:32.784Z,24.85
2023-05-11T22:49:00.310Z,23.45
2023-05-11T22:51:28.736Z,21.92
2023-05-11T22:53:56.061Z,22.75
2023-05-11T22:56:23.248Z,21.35
2023-05-11T22:58:50.339Z,22.60
2023-05-11T23:01:17.463Z,21.63
2023-05-11T23:03:44.606Z,19.95
2023-05-11T23:06:11.696Z,21.77
2023-05-11T23:08:40.097Z,20.23
2023-05-11T23:11:07.243Z,23.13
2023-05-11T23:13:34.352Z,21.65
2023-05-11T23:16:01.425Z,20.75
2023-05-11T23:18:28.862Z,20.63
2023-05-11T23:20:56.453Z,18.83
2023-05-11T23:23:23.769Z,19.27
2023-05-11T23:25:52.422Z,20.98
2023-05-11T23:28:19.791Z,18.77
2023-05-11T23:30:46.901Z,21.90
2023-05-11T23:33:14.459Z,17.52
2023-05-11T23:35:41.633Z,18.58
2023-05-11T23:38:08.727Z,18.33
2023-05-11T23:40:35.868Z,19.35
2023-05-11T23:43:04.303Z,21.30
2023-05-11T23:45:31.467Z,20.23
2023-05-11T23:47:58.605Z,17.65
2023-05-11T23:50:25.698Z,18.63
2023-05-11T23:52:52.765Z,18.55
2023-05-11T23:55:19.888Z,16.77
2023-05-11T23:57:46.949Z,18.27
